Time;durP1;ratioP1;P1;durP2;ratioP2;P2;SDS_P1;SDS_P2;PMS_P1;PMS_P2;Temp;Humidity;BMP_temperature;BMP_pressure;BME280_temperature;BME280_humidity;BME280_pressure;Samples;Min_cycle;Max_cycle;Signal;HPM_P1;HPM_P2
2024/01/02 00:01:12;;;;;;;;;;;;;;;21.82;28.04;97533.31;4959396;28;937;-75
2024/01/02 00:03:38;;;;;;;;;;;;;;;22.08;27.83;97538.88;4975432;28;1066;-75
2024/01/02 00:06:04;;;;;;;;;;;;;;;22.08;27.76;97533.22;4936906;29;1423;-75
2024/01/02 00:08:29;;;;;;;;;;;;;;;22.27;27.55;97534.16;4891406;29;1134;-75
2024/01/02 00:10:55;;;;;;;;;;;;;;;21.98;28.01;97531.56;4918120;29;1993;-75
2024/01/02 00:13:20;;;;;;;;;;;;;;;21.79;28.27;97534.22;4902344;29;1137;-75
2024/01/02 00:15:46;;;;;;;;;;;;;;;21.63;28.15;97536.41;4930278;29;978;-75
2024/01/02 00:18:11;;;;;;;;;;;;;;;21.69;28.27;97541.03;4956038;29;1070;-75
2024/01/02 00:20:37;;;;;;;;;;;;;;;21.73;28.47;97541.72;4956095;29;1191;-75
2024/01/02 00:23:03;;;;;;;;;;;;;;;21.96;28.41;97542.53;4939687;29;1405;-75
2024/01/02 00:25:28;;;;;;;;;;;;;;;22.10;27.51;97540.03;4940163;29;1008;-75
2024/01/02 00:27:54;;;;;;;;;;;;;;;21.80;28.33;97547.13;4955859;29;1046;-75
2024/01/02 00:30:20;;;;;;;;;;;;;;;21.70;28.28;97553.94;4956004;29;1899;-75
2024/01/02 00:32:45;;;;;;;;;;;;;;;21.65;28.18;97557.34;4939772;29;949;-75
2024/01/02 00:35:11;;;;;;;;;;;;;;;21.81;28.33;97560.06;4955835;29;917;-75
2024/01/02 00:37:36;;;;;;;;;;;;;;;21.87;28.04;97560.25;4955665;29;942;-75
2024/01/02 00:40:02;;;;;;;;;;;;;;;21.92;28.06;97573.84;4956000;29;987;-75
2024/01/02 00:42:28;;;;;;;;;;;;;;;22.19;27.69;97566.88;4926891;28;953;-75
2024/01/02 00:44:53;;;;;;;;;;;;;;;22.07;27.77;97559.94;5011526;28;929;-75
2024/01/02 00:47:21;;;;;;;;;;;;;;;22.12;27.40;97565.06;5015960;28;1273;-75
2024/01/02 00:49:47;;;;;;;;;;;;;;;21.64;28.15;97560.66;5015027;28;1906;-75
2024/01/02 00:52:13;;;;;;;;;;;;;;;22.08;27.76;97556.69;5015227;28;1240;-75
2024/01/02 00:54:38;;;;;;;;;;;;;;;21.95;27.98;97557.97;5031553;28;1281;-74
2024/01/02 00:57:04;;;;;;;;;;;;;;;21.88;28.03;97558.22;5031831;28;1154;-74
2024/01/02 00:59:30;;;;;;;;;;;;;;;22.31;27.32;97546.16;5031399;28;952;-75
2024/01/02 01:01:55;;;;;;;;;;;;;;;22.40;27.05;97559.63;5031561;28;1095;-75
2024/01/02 01:04:21;;;;;;;;;;;;;;;21.91;27.87;97558.06;5030462;28;1051;-76
2024/01/02 01:06:47;;;;;;;;;;;;;;;21.87;27.77;97565.13;5014963;28;1369;-75
2024/01/02 01:09:13;;;;;;;;;;;;;;;21.83;28.35;97551.88;5033198;28;1972;-74
2024/01/02 01:11:38;;;;;;;;;;;;;;;22.12;27.85;97550.88;5017003;28;1313;-75
2024/01/02 01:14:04;;;;;;;;;;;;;;;22.04;27.90;97549.56;5013325;28;1019;-75
2024/01/02 01:16:29;;;;;;;;;;;;;;;21.70;28.22;97551.09;4997497;28;915;-75
2024/01/02 01:18:55;;;;;;;;;;;;;;;21.59;28.34;97550.69;4997434;28;997;-75
2024/01/02 01:21:20;;;;;;;;;;;;;;;21.64;28.22;97546.50;5000031;28;1072;-75
2024/01/02 01:23:46;;;;;;;;;;;;;;;21.39;29.05;97538.81;5017420;28;978;-75
2024/01/02 01:26:11;;;;;;;;;;;;;;;21.89;28.41;97539.97;4985079;28;1325;-75
2024/01/02 01:28:37;;;;;;;;;;;;;;;22.28;27.73;97535.78;5000975;28;1210;-75
2024/01/02 01:31:03;;;;;;;;;;;;;;;22.01;27.78;97536.28;4943014;29;1981;-75
2024/01/02 01:33:28;;;;;;;;;;;;;;;21.67;28.31;97548.41;4923707;29;1382;-75
2024/01/02 01:35:54;;;;;;;;;;;;;;;21.58;28.33;97546.28;4908052;29;961;-75
2024/01/02 01:38:19;;;;;;;;;;;;;;;21.68;28.70;97547.97;4923909;29;1368;-74
2024/01/02 01:40:45;;;;;;;;;;;;;;;21.96;28.34;97553.88;4939570;29;952;-75
2024/01/02 01:43:12;;;;;;;;;;;;;;;22.02;28.02;97552.84;4923867;29;1235;-74
2024/01/02 01:45:37;;;;;;;;;;;;;;;21.87;27.99;97550.97;4915338;29;1070;-75
2024/01/02 01:48:06;;;;;;;;;;;;;;;21.76;28.23;97552.13;4920286;29;1650;-74
2024/01/02 01:50:32;;;;;;;;;;;;;;;22.01;28.15;97556.91;4920494;29;1987;-75
2024/01/02 01:52:58;;;;;;;;;;;;;;;22.15;27.81;97561.31;4920517;29;1026;-75
2024/01/02 01:55:24;;;;;;;;;;;;;;;21.97;28.06;97546.97;4920250;29;1092;-75
2024/01/02 01:57:49;;;;;;;;;;;;;;;22.01;27.92;97550.47;4920452;29;1188;-75
2024/01/02 02:00:15;;;;;;;;;;;;;;;21.98;27.86;97557.06;4920520;29;1200;-75
2024/01/02 02:02:41;;;;;;;;;;;;;;;21.77;28.03;97559.38;4900943;29;1509;-75
2024/01/02 02:05:07;;;;;;;;;;;;;;;21.61;28.38;97559.53;4915771;29;1146;-75
2024/01/02 02:07:32;;;;;;;;;;;;;;;21.99;27.83;97564.31;4908823;29;1172;-75
2024/01/02 02:09:58;;;;;;;;;;;;;;;21.97;28.10;97566.81;4926609;29;1907;-75
2024/01/02 02:12:24;;;;;;;;;;;;;;;22.19;27.76;97573.31;4958301;29;1005;-75
2024/01/02 02:14:49;;;;;;;;;;;;;;;22.12;27.92;97579.22;4942508;29;972;-75
2024/01/02 02:17:19;;;;;;;;;;;;;;;21.68;28.44;97579.09;4955720;28;1245;-75
2024/01/02 02:19:44;;;;;;;;;;;;;;;21.60;28.19;97580.56;4964741;28;1638;-75
2024/01/02 02:22:10;;;;;;;;;;;;;;;21.75;27.87;97578.84;4981054;28;1107;-75
2024/01/02 02:24:36;;;;;;;;;;;;;;;21.73;28.34;97578.53;4980708;28;1127;-75
2024/01/02 02:27:01;;;;;;;;;;;;;;;22.07;28.04;97582.63;4980655;28;1132;-75
2024/01/02 02:29:27;;;;;;;;;;;;;;;21.91;28.12;97579.94;4964363;28;1911;-75
2024/01/02 02:31:53;;;;;;;;;;;;;;;21.83;28.08;97579.41;4996387;28;954;-75
2024/01/02 02:34:18;;;;;;;;;;;;;;;21.71;28.23;97581.03;5008141;28;875;-74
2024/01/02 02:36:44;;;;;;;;;;;;;;;21.79;28.39;97573.88;5016654;28;951;-75
2024/01/02 02:39:10;;;;;;;;;;;;;;;21.98;27.92;97572.00;5033633;28;944;-75
2024/01/02 02:41:35;;;;;;;;;;;;;;;22.19;27.63;97562.00;5018522;28;886;-75
2024/01/02 02:44:01;;;;;;;;;;;;;;;22.01;27.65;97559.75;5033734;28;1062;-75
2024/01/02 02:46:26;;;;;;;;;;;;;;;21.96;27.90;97559.53;5034155;28;953;-75
2024/01/02 02:48:52;;;;;;;;;;;;;;;21.49;28.65;97555.47;5017228;28;1247;-75
2024/01/02 02:51:18;;;;;;;;;;;;;;;22.01;27.74;97556.13;5035685;28;1989;-75
2024/01/02 02:53:43;;;;;;;;;;;;;;;21.99;27.53;97558.63;5035753;28;1036;-75
2024/01/02 02:56:18;;;;;;;;;;;;;;;22.06;27.66;97552.72;5019446;28;1120;-75
2024/01/02 02:58:43;;;;;;;;;;;;;;;22.04;27.91;97546.72;5035563;28;938;-75
2024/01/02 03:01:13;;;;;;;;;;;;;;;21.82;27.92;97555.97;5018993;28;1162;-75
2024/01/02 03:03:38;;;;;;;;;;;;;;;21.75;28.20;97561.84;5019131;28;1201;-75
2024/01/02 03:06:04;;;;;;;;;;;;;;;21.28;29.03;97556.91;5018967;28;1088;-75
2024/01/02 03:08:29;;;;;;;;;;;;;;;21.77;28.32;97553.72;5035671;28;979;-75
2024/01/02 03:10:59;;;;;;;;;;;;;;;21.97;28.33;97563.97;5018687;28;1918;-75
2024/01/02 03:13:24;;;;;;;;;;;;;;;21.85;28.01;97560.69;5035602;28;952;-74
2024/01/02 03:15:50;;;;;;;;;;;;;;;21.81;28.36;97565.72;5035481;28;1043;-75
2024/01/02 03:18:15;;;;;;;;;;;;;;;21.82;28.18;97555.97;5035500;28;1098;-75
2024/01/02 03:20:41;;;;;;;;;;;;;;;21.75;28.29;97556.19;5018889;28;1087;-75
2024/01/02 03:23:06;;;;;;;;;;;;;;;21.85;28.22;97555.03;5019108;28;939;-75
2024/01/02 03:25:33;;;;;;;;;;;;;;;22.06;28.00;97552.72;5033088;28;897;-75
2024/01/02 03:27:58;;;;;;;;;;;;;;;21.99;28.10;97553.75;5016129;28;892;-75
2024/01/02 03:30:24;;;;;;;;;;;;;;;22.12;27.84;97555.78;5016750;28;1906;-75
2024/01/02 03:32:50;;;;;;;;;;;;;;;21.95;27.80;97569.28;5016336;28;1247;-75
2024/01/02 03:35:15;;;;;;;;;;;;;;;21.61;28.19;97568.03;5017477;28;966;-75
2024/01/02 03:37:42;;;;;;;;;;;;;;;21.65;28.36;97557.34;5016307;28;934;-75
2024/01/02 03:40:08;;;;;;;;;;;;;;;21.88;27.87;97558.22;5016295;28;1012;-75
2024/01/02 03:42:33;;;;;;;;;;;;;;;22.03;27.77;97570.63;5034164;28;1099;-75
2024/01/02 03:44:59;;;;;;;;;;;;;;;21.97;27.92;97575.31;5034806;28;964;-75
2024/01/02 03:47:25;;;;;;;;;;;;;;;21.65;28.24;97574.34;5018049;28;1189;-75
2024/01/02 03:49:50;;;;;;;;;;;;;;;21.83;28.19;97580.19;5034389;28;1894;-75
2024/01/02 03:52:16;;;;;;;;;;;;;;;21.71;28.67;97583.88;5034520;28;989;-75
2024/01/02 03:54:41;;;;;;;;;;;;;;;22.06;28.11;97583.88;4998285;28;1528;-75
2024/01/02 03:57:07;;;;;;;;;;;;;;;22.00;28.18;97588.53;4998646;28;971;-75
2024/01/02 03:59:35;;;;;;;;;;;;;;;21.99;28.06;97590.59;4998430;28;1060;-75
2024/01/02 04:02:00;;;;;;;;;;;;;;;22.02;28.22;97586.03;5007264;28;1205;-75
2024/01/02 04:04:26;;;;;;;;;;;;;;;22.15;27.87;97584.00;5017671;28;1001;-75
2024/01/02 04:06:51;;;;;;;;;;;;;;;21.70;27.97;97593.59;5017715;28;999;-75
2024/01/02 04:09:17;;;;;;;;;;;;;;;21.64;28.29;97594.63;5034239;28;1975;-75
2024/01/02 04:11:42;;;;;;;;;;;;;;;21.80;28.30;97603.75;5033972;28;998;-75
2024/01/02 04:14:08;;;;;;;;;;;;;;;21.96;28.08;97607.69;5005024;28;922;-75
2024/01/02 04:16:34;;;;;;;;;;;;;;;21.97;28.13;97612.13;4994810;28;1116;-75
2024/01/02 04:18:59;;;;;;;;;;;;;;;21.94;27.75;97618.69;4994969;28;830;-75
2024/01/02 04:21:25;;;;;;;;;;;;;;;21.71;28.19;97612.19;4978763;28;946;-76
2024/01/02 04:23:50;;;;;;;;;;;;;;;21.79;27.93;97624.84;4995268;28;1019;-75
2024/01/02 04:26:16;;;;;;;;;;;;;;;21.84;28.03;97626.31;5005027;28;1230;-75
2024/01/02 04:28:42;;;;;;;;;;;;;;;21.95;27.93;97621.06;5015483;28;1299;-75
2024/01/02 04:31:08;;;;;;;;;;;;;;;22.15;27.67;97612.31;5016494;28;1992;-74
2024/01/02 04:33:34;;;;;;;;;;;;;;;22.26;27.41;97615.56;4999052;28;906;-75
2024/01/02 04:35:59;;;;;;;;;;;;;;;21.92;27.84;97609.88;4998733;28;822;-75
2024/01/02 04:38:25;;;;;;;;;;;;;;;21.61;28.31;97607.66;5016527;28;903;-75
2024/01/02 04:40:50;;;;;;;;;;;;;;;21.29;28.78;97615.09;5015169;28;1158;-75
2024/01/02 04:43:16;;;;;;;;;;;;;;;21.81;28.02;97622.38;5031713;28;1080;-75
2024/01/02 04:45:42;;;;;;;;;;;;;;;21.99;28.05;97615.28;5033382;28;965;-75
2024/01/02 04:48:08;;;;;;;;;;;;;;;22.00;27.76;97611.22;5017094;28;1194;-75
2024/01/02 04:50:34;;;;;;;;;;;;;;;21.95;28.00;97606.13;5000710;28;1909;-75
2024/01/02 04:53:00;;;;;;;;;;;;;;;21.90;27.89;97607.47;5000949;28;1139;-75
2024/01/02 04:55:25;;;;;;;;;;;;;;;21.84;27.89;97609.31;5033229;28;984;-75
2024/01/02 04:57:51;;;;;;;;;;;;;;;21.70;28.32;97613.41;4997254;28;965;-75
2024/01/02 05:00:16;;;;;;;;;;;;;;;22.01;27.84;97607.13;4981220;28;1128;-75
2024/01/02 05:02:42;;;;;;;;;;;;;;;21.85;28.22;97602.41;4981338;28;1611;-75
2024/01/02 05:05:08;;;;;;;;;;;;;;;22.12;27.84;97616.06;4981320;28;1206;-75
2024/01/02 05:07:33;;;;;;;;;;;;;;;22.07;27.62;97610.94;4977715;28;1187;-75
2024/01/02 05:10:00;;;;;;;;;;;;;;;21.79;28.05;97619.19;4977944;28;1903;-75
2024/01/02 05:12:27;;;;;;;;;;;;;;;21.72;28.16;97619.44;4993805;28;1271;-75
2024/01/02 05:14:52;;;;;;;;;;;;;;;21.54;28.14;97607.88;4945673;28;1200;-75
2024/01/02 05:17:18;;;;;;;;;;;;;;;21.70;28.26;97604.91;4924188;29;986;-75
2024/01/02 05:19:43;;;;;;;;;;;;;;;21.94;27.66;97608.16;4936066;29;1026;-75
2024/01/02 05:22:09;;;;;;;;;;;;;;;21.81;27.88;97605.38;4935644;29;768;-75
2024/01/02 05:24:35;;;;;;;;;;;;;;;21.89;27.93;97599.44;4936060;29;812;-75
2024/01/02 05:27:00;;;;;;;;;;;;;;;22.14;27.24;97605.09;4936010;29;816;-75
2024/01/02 05:29:27;;;;;;;;;;;;;;;21.91;27.79;97596.94;4950283;28;1902;-75
2024/01/02 05:31:53;;;;;;;;;;;;;;;21.81;27.99;97599.72;4954972;28;752;-75
2024/01/02 05:34:19;;;;;;;;;;;;;;;21.83;27.85;97597.19;4954698;28;917;-75
2024/01/02 05:36:46;;;;;;;;;;;;;;;21.83;27.91;97600.03;4954789;28;713;-75
2024/01/02 05:39:11;;;;;;;;;;;;;;;21.74;28.26;97599.13;4973201;28;958;-75
2024/01/02 05:41:37;;;;;;;;;;;;;;;21.91;27.59;97602.59;4977657;28;766;-76
2024/01/02 05:44:02;;;;;;;;;;;;;;;21.76;27.94;97591.78;4977168;28;788;-76
2024/01/02 05:46:28;;;;;;;;;;;;;;;21.80;28.03;97597.31;4977601;28;724;-76
2024/01/02 05:48:54;;;;;;;;;;;;;;;21.96;27.60;97599.97;4993266;28;1261;-76
2024/01/02 05:51:19;;;;;;;;;;;;;;;22.01;27.49;97592.94;4993335;28;1910;-76
2024/01/02 05:53:45;;;;;;;;;;;;;;;21.75;27.84;97604.34;4993509;28;1420;-77
2024/01/02 05:56:11;;;;;;;;;;;;;;;21.80;27.95;97609.44;5017536;28;947;-76
2024/01/02 05:58:37;;;;;;;;;;;;;;;22.11;27.54;97600.31;5035504;28;957;-76
2024/01/02 06:01:02;;;;;;;;;;;;;;;21.75;28.17;97612.03;5035147;28;1111;-76
2024/01/02 06:03:28;;;;;;;;;;;;;;;21.82;28.03;97606.94;5035028;28;1607;-75
2024/01/02 06:05:53;;;;;;;;;;;;;;;22.00;27.58;97611.22;5017397;28;1228;-76
2024/01/02 06:08:21;;;;;;;;;;;;;;;21.60;28.31;97623.03;5038002;28;990;-76
2024/01/02 06:10:46;;;;;;;;;;;;;;;21.31;28.55;97635.28;5021311;28;1969;-76
2024/01/02 06:13:13;;;;;;;;;;;;;;;21.50;28.54;97635.50;5037385;28;1062;-76
2024/01/02 06:15:39;;;;;;;;;;;;;;;21.65;28.29;97638.66;5037636;28;920;-77
2024/01/02 06:18:05;;;;;;;;;;;;;;;21.58;28.58;97648.19;5054066;28;1209;-77
2024/01/02 06:20:31;;;;;;;;;;;;;;;21.89;27.93;97650.44;5037266;28;937;-77
2024/01/02 06:22:56;;;;;;;;;;;;;;;21.97;27.94;97663.13;5020668;28;1147;-76
2024/01/02 06:25:22;;;;;;;;;;;;;;;21.81;28.19;97670.50;5038657;28;939;-77
2024/01/02 06:27:48;;;;;;;;;;;;;;;21.97;27.63;97669.59;5035940;28;968;-77
2024/01/02 06:30:13;;;;;;;;;;;;;;;21.72;28.15;97670.41;5035882;28;1906;-77
2024/01/02 06:32:39;;;;;;;;;;;;;;;21.84;28.02;97675.25;5036267;28;951;-76
2024/01/02 06:35:05;;;;;;;;;;;;;;;21.59;28.21;97673.22;5035857;28;1064;-75
2024/01/02 06:37:30;;;;;;;;;;;;;;;21.83;28.11;97681.38;5035876;28;1004;-76
2024/01/02 06:39:56;;;;;;;;;;;;;;;21.83;28.02;97682.16;5035531;28;1096;-76
2024/01/02 06:42:22;;;;;;;;;;;;;;;21.89;27.67;97690.09;5019548;28;997;-78
2024/01/02 06:44:48;;;;;;;;;;;;;;;21.76;28.01;97688.06;5037099;28;921;-76
2024/01/02 06:47:14;;;;;;;;;;;;;;;21.71;28.20;97691.47;5019088;28;1185;-76
2024/01/02 06:49:39;;;;;;;;;;;;;;;21.74;28.21;97693.38;5035710;28;1910;-77
2024/01/02 06:52:05;;;;;;;;;;;;;;;21.90;27.96;97683.16;5019145;28;969;-72
2024/01/02 06:54:30;;;;;;;;;;;;;;;22.19;27.57;97685.88;5035801;28;973;-73
2024/01/02 06:56:57;;;;;;;;;;;;;;;22.05;27.95;97687.13;5035694;28;1001;-72
2024/01/02 06:59:23;;;;;;;;;;;;;;;22.30;27.57;97686.31;5036251;28;1002;-72
2024/01/02 07:01:49;;;;;;;;;;;;;;;22.39;27.59;97694.13;5052963;28;905;-74
2024/01/02 07:04:14;;;;;;;;;;;;;;;21.59;29.27;97695.88;5037798;28;909;-79
2024/01/02 07:06:40;;;;;;;;;;;;;;;20.91;30.34;97710.44;5035564;28;1240;-80
2024/01/02 07:09:05;;;;;;;;;;;;;;;21.19;30.02;97706.78;5019430;28;1143;-80
2024/01/02 07:11:31;;;;;;;;;;;;;;;21.54;29.65;97715.44;5019203;28;1918;-80
2024/01/02 07:13:57;;;;;;;;;;;;;;;22.06;28.67;97702.88;5036119;28;1001;-79
2024/01/02 07:16:23;;;;;;;;;;;;;;;21.87;28.53;97699.06;5035983;28;1017;-79
2024/01/02 07:18:48;;;;;;;;;;;;;;;21.95;28.32;97700.38;5014933;28;1094;-80
2024/01/02 07:21:14;;;;;;;;;;;;;;;22.45;27.67;97686.63;5015946;28;1021;-80
2024/01/02 07:23:40;;;;;;;;;;;;;;;22.20;28.04;97704.47;5015657;28;1110;-80
2024/01/02 07:26:05;;;;;;;;;;;;;;;22.03;28.29;97695.28;5015547;28;909;-80
2024/01/02 07:28:31;;;;;;;;;;;;;;;22.21;27.95;97689.84;4976447;28;1011;-80
2024/01/02 07:30:56;;;;;;;;;;;;;;;22.11;27.99;97691.00;4976349;28;1978;-80
2024/01/02 07:33:22;;;;;;;;;;;;;;;22.31;27.80;97674.50;4976354;28;990;-80
2024/01/02 07:35:47;;;;;;;;;;;;;;;21.76;28.73;97681.59;4977087;28;925;-79
2024/01/02 07:38:13;;;;;;;;;;;;;;;20.88;30.14;97691.50;4990656;28;984;-79
2024/01/02 07:40:39;;;;;;;;;;;;;;;21.25;29.41;97685.19;4996054;28;1001;-80
2024/01/02 07:43:05;;;;;;;;;;;;;;;21.75;28.62;97692.13;4979391;28;1010;-78
2024/01/02 07:45:30;;;;;;;;;;;;;;;22.07;28.07;97690.28;4995698;28;944;-78
2024/01/02 07:47:56;;;;;;;;;;;;;;;21.90;28.34;97694.50;4979318;28;1534;-78
2024/01/02 07:50:21;;;;;;;;;;;;;;;22.25;27.67;97701.06;4993290;28;1910;-78
2024/01/02 07:52:47;;;;;;;;;;;;;;;22.09;28.07;97699.13;4982706;28;1443;-78
2024/01/02 07:55:13;;;;;;;;;;;;;;;22.03;28.35;97695.28;4995052;28;1015;-72
2024/01/02 07:57:38;;;;;;;;;;;;;;;21.72;28.67;97693.06;4994880;28;995;-73
2024/01/02 08:00:04;;;;;;;;;;;;;;;20.84;30.23;97707.81;4995195;28;977;-73
2024/01/02 08:02:37;;;;;;;;;;;;;;;21.22;29.76;97711.53;4994749;28;1175;-76
2024/01/02 08:05:03;;;;;;;;;;;;;;;21.05;30.35;97707.19;4981164;28;1015;-74
2024/01/02 08:07:29;;;;;;;;;;;;;;;21.62;29.18;97710.38;5014450;28;991;-75
2024/01/02 08:09:54;;;;;;;;;;;;;;;21.67;29.69;97702.09;5014736;28;1980;-73
2024/01/02 08:12:20;;;;;;;;;;;;;;;21.43;29.89;97712.16;5014284;28;1001;-73
2024/01/02 08:14:45;;;;;;;;;;;;;;;20.88;30.89;97714.13;5014546;28;1216;-74
2024/01/02 08:17:11;;;;;;;;;;;;;;;21.42;30.33;97713.41;5014407;28;1141;-75
2024/01/02 08:19:37;;;;;;;;;;;;;;;21.58;30.00;97716.94;5014416;28;1431;-73
2024/01/02 08:22:02;;;;;;;;;;;;;;;21.40;30.57;97721.53;5014414;28;1109;-74
2024/01/02 08:24:28;;;;;;;;;;;;;;;20.44;32.26;97725.00;5014278;28;1018;-74
2024/01/02 08:26:54;;;;;;;;;;;;;;;20.05;33.45;97726.78;5014274;28;1134;-72
2024/01/02 08:29:19;;;;;;;;;;;;;;;19.80;33.72;97732.22;5013545;28;994;-72
2024/01/02 08:31:45;;;;;;;;;;;;;;;20.08;33.16;97737.22;5007456;28;1971;-72
2024/01/02 08:34:10;;;;;;;;;;;;;;;20.71;31.78;97738.84;5036091;28;933;-72
2024/01/02 08:36:36;;;;;;;;;;;;;;;21.01;31.40;97737.63;5034976;28;1489;-71
2024/01/02 08:39:03;;;;;;;;;;;;;;;20.23;32.39;97732.78;5018389;28;1001;-71
2024/01/02 08:41:28;;;;;;;;;;;;;;;19.79;33.33;97742.72;5016464;28;1900;-72
2024/01/02 08:43:54;;;;;;;;;;;;;;;20.26;32.63;97743.22;5033406;28;1043;-71
2024/01/02 08:46:19;;;;;;;;;;;;;;;20.71;31.98;97745.28;5033227;28;998;-70
2024/01/02 08:48:45;;;;;;;;;;;;;;;20.76;31.46;97741.91;5017271;28;1581;-71
2024/01/02 08:51:11;;;;;;;;;;;;;;;20.29;32.33;97742.31;5005998;28;1903;-71
2024/01/02 08:53:37;;;;;;;;;;;;;;;19.78;32.95;97747.59;4993990;28;1095;-71
2024/01/02 08:56:03;;;;;;;;;;;;;;;19.56;33.39;97749.28;4993779;28;1163;-71
2024/01/02 08:58:28;;;;;;;;;;;;;;;20.08;33.30;97742.84;4993903;28;1030;-71
2024/01/02 09:00:54;;;;;;;;;;;;;;;20.74;32.02;97733.09;5010323;28;1223;-75
2024/01/02 09:03:19;;;;;;;;;;;;;;;20.67;32.12;97727.63;5013339;28;1130;-72
2024/01/02 09:05:45;;;;;;;;;;;;;;;20.65;31.85;97732.94;5013516;28;957;-72
2024/01/02 09:08:11;;;;;;;;;;;;;;;20.47;32.24;97729.81;5013340;28;1006;-72
2024/01/02 09:10:37;;;;;;;;;;;;;;;21.02;31.40;97720.19;4992709;28;1910;-72
2024/01/02 09:13:03;;;;;;;;;;;;;;;21.64;30.25;97714.34;4960915;28;1522;-72
2024/01/02 09:15:30;;;;;;;;;;;;;;;21.35;30.83;97716.44;4986426;28;1374;-71
2024/01/02 09:17:55;;;;;;;;;;;;;;;21.69;30.31;97704.47;4974260;28;957;-73
2024/01/02 09:20:21;;;;;;;;;;;;;;;21.58;30.83;97704.81;4974313;28;1056;-72
2024/01/02 09:22:46;;;;;;;;;;;;;;;21.50;30.98;97714.75;4984636;28;1986;-73
2024/01/02 09:25:12;;;;;;;;;;;;;;;21.36;31.49;97712.38;4974637;28;1032;-78
2024/01/02 09:27:37;;;;;;;;;;;;;;;21.68;30.71;97697.22;4974291;28;1164;-75
2024/01/02 09:30:04;;;;;;;;;;;;;;;21.81;30.29;97696.00;4974353;28;1946;-77
2024/01/02 09:32:30;;;;;;;;;;;;;;;21.60;30.91;97696.66;4974307;28;901;-75
2024/01/02 09:34:56;;;;;;;;;;;;;;;21.64;30.66;97694.50;4976216;28;1904;-76
2024/01/02 09:37:21;;;;;;;;;;;;;;;21.75;30.62;97692.13;4968662;28;1175;-76
2024/01/02 09:39:47;;;;;;;;;;;;;;;21.53;30.90;97697.69;4993550;28;1059;-76
2024/01/02 09:42:15;;;;;;;;;;;;;;;21.79;30.16;97698.47;4995970;28;965;-76
2024/01/02 09:44:53;;;;;;;;;;;;;;;20.97;31.55;97688.84;5029927;28;944;-77
2024/01/02 09:47:37;;;;;;;;;;;;;;;21.05;31.40;97690.22;5034822;28;2040;-72
2024/01/02 09:50:22;;;;;;;;;;;;;;;20.92;31.42;97686.56;5019844;28;1902;-76
2024/01/02 09:52:50;;;;;;;;;;;;;;;20.82;31.30;97691.28;5018028;28;1110;-76
2024/01/02 09:55:31;;;;;;;;;;;;;;;21.12;30.59;97690.00;5018920;28;938;-76
2024/01/02 09:58:15;;;;;;;;;;;;;;;21.44;29.81;97682.59;5010430;28;1957;-76
2024/01/02 10:00:48;;;;;;;;;;;;;;;21.01;30.66;97689.53;5014885;28;1088;-76
2024/01/02 10:03:16;;;;;;;;;;;;;;;21.15;30.18;97683.47;4999257;28;957;-73
2024/01/02 10:05:45;;;;;;;;;;;;;;;21.10;30.13;97674.72;5000234;28;912;-74
2024/01/02 10:08:37;;;;;;;;;;;;;;;21.01;30.31;97675.38;5014813;28;850;-75
2024/01/02 10:11:03;;;;;;;;;;;;;;;20.80;30.53;97674.75;4997034;28;1906;-74
2024/01/02 10:13:55;;;;;;;;;;;;;;;21.11;30.00;97677.09;5013809;28;1172;-75
2024/01/02 10:16:34;;;;;;;;;;;;;;;21.26;29.88;97666.94;4997175;28;1199;-74
2024/01/02 10:19:09;;;;;;;;;;;;;;;21.41;29.54;97664.50;5030379;28;751;-75
2024/01/02 10:21:41;;;;;;;;;;;;;;;21.52;29.20;97667.00;4999120;28;842;-74
2024/01/02 10:24:11;;;;;;;;;;;;;;;21.41;29.42;97655.22;5030457;28;763;-74
2024/01/02 10:26:38;;;;;;;;;;;;;;;21.53;29.21;97662.91;5030407;28;833;-73
2024/01/02 10:29:03;;;;;;;;;;;;;;;21.68;28.81;97658.38;5030343;28;771;-73
2024/01/02 10:31:29;;;;;;;;;;;;;;;20.98;29.85;97668.56;5013930;28;1983;-74
2024/01/02 10:33:58;;;;;;;;;;;;;;;20.77;29.91;97657.88;4998545;28;869;-74
2024/01/02 10:36:24;;;;;;;;;;;;;;;21.02;30.18;97657.16;5015573;28;994;-73
2024/01/02 10:38:59;;;;;;;;;;;;;;;21.44;29.01;97649.44;5015829;28;941;-74
2024/01/02 10:41:36;;;;;;;;;;;;;;;21.54;29.22;97650.34;4999885;28;894;-74
2024/01/02 10:44:11;;;;;;;;;;;;;;;21.26;29.78;97649.97;5015729;28;736;-74
2024/01/02 10:46:47;;;;;;;;;;;;;;;21.13;29.93;97646.31;5032533;28;1211;-74
2024/01/02 10:49:18;;;;;;;;;;;;;;;21.55;29.04;97649.09;5018487;28;1305;-73
2024/01/02 10:51:44;;;;;;;;;;;;;;;21.35;29.50;97629.53;5018599;28;1910;-73
2024/01/02 10:54:13;;;;;;;;;;;;;;;21.12;30.03;97630.59;5002835;28;887;-73
2024/01/02 10:56:43;;;;;;;;;;;;;;;20.92;29.79;97630.00;5002550;28;797;-73
2024/01/02 10:59:14;;;;;;;;;;;;;;;20.67;30.32;97631.50;5019086;28;728;-74
2024/01/02 11:01:40;;;;;;;;;;;;;;;21.04;30.18;97632.06;5035285;28;910;-74
2024/01/02 11:04:26;;;;;;;;;;;;;;;21.30;29.97;97622.38;5018742;28;802;-73
2024/01/02 11:06:56;;;;;;;;;;;;;;;21.39;29.58;97623.72;5035234;28;994;-73
2024/01/02 11:09:26;;;;;;;;;;;;;;;21.39;29.83;97615.25;5019793;28;1131;-74
2024/01/02 11:11:52;;;;;;;;;;;;;;;21.44;29.34;97609.00;5019547;28;1910;-73
2024/01/02 11:14:18;;;;;;;;;;;;;;;20.98;30.18;97611.22;5036215;28;715;-74
2024/01/02 11:16:45;;;;;;;;;;;;;;;20.64;30.52;97609.00;5003565;28;1279;-73
2024/01/02 11:19:10;;;;;;;;;;;;;;;21.00;30.34;97605.91;5035998;28;743;-73
2024/01/02 11:21:55;;;;;;;;;;;;;;;21.26;29.80;97604.69;5019528;28;806;-73
2024/01/02 11:24:23;;;;;;;;;;;;;;;21.19;30.11;97593.59;5036985;28;795;-73
2024/01/02 11:26:49;;;;;;;;;;;;;;;21.28;29.84;97595.75;5035730;28;759;-73
2024/01/02 11:29:23;;;;;;;;;;;;;;;21.28;29.47;97590.09;5019279;28;778;-74
2024/01/02 11:31:50;;;;;;;;;;;;;;;21.05;30.01;97588.38;5036101;28;1910;-73
2024/01/02 11:34:28;;;;;;;;;;;;;;;20.94;30.02;97582.28;5019288;28;839;-73
2024/01/02 11:37:15;;;;;;;;;;;;;;;20.91;30.37;97583.94;5035804;28;1121;-73
2024/01/02 11:39:48;;;;;;;;;;;;;;;21.28;29.59;97573.91;5035864;28;783;-73
2024/01/02 11:42:13;;;;;;;;;;;;;;;21.20;29.96;97561.25;5019164;28;797;-74
2024/01/02 11:44:50;;;;;;;;;;;;;;;21.28;29.52;97562.56;5035797;28;822;-73
2024/01/02 11:47:22;;;;;;;;;;;;;;;21.50;29.31;97567.56;5035372;28;1331;-73
2024/01/02 11:49:49;;;;;;;;;;;;;;;21.01;30.04;97565.06;5036891;28;1902;-73
2024/01/02 11:52:16;;;;;;;;;;;;;;;20.87;30.07;97571.94;5036409;28;854;-73
2024/01/02 11:54:54;;;;;;;;;;;;;;;20.93;30.04;97575.00;5019413;28;1107;-73
2024/01/02 11:57:25;;;;;;;;;;;;;;;20.91;30.22;97563.38;5019261;28;744;-74
2024/01/02 11:59:53;;;;;;;;;;;;;;;21.44;29.29;97560.91;5035554;28;822;-74
2024/01/02 12:02:26;;;;;;;;;;;;;;;21.19;29.67;97562.50;5037344;28;822;-74
2024/01/02 12:04:58;;;;;;;;;;;;;;;21.55;29.21;97558.50;5018442;28;1145;-73
2024/01/02 12:07:27;;;;;;;;;;;;;;;20.99;29.66;97561.91;5035607;28;1067;-74
2024/01/02 12:09:53;;;;;;;;;;;;;;;21.02;29.74;97561.00;5014285;28;1899;-73
2024/01/02 12:12:21;;;;;;;;;;;;;;;21.03;29.98;97568.22;5014217;28;818;-74
2024/01/02 12:14:50;;;;;;;;;;;;;;;21.27;30.02;97572.31;4998100;28;867;-74
2024/01/02 12:17:18;;;;;;;;;;;;;;;21.44;29.83;97569.38;4994822;28;934;-74
2024/01/02 12:19:44;;;;;;;;;;;;;;;21.55;29.29;97575.47;4962676;28;1246;-74
2024/01/02 12:22:10;;;;;;;;;;;;;;;21.03;30.25;97579.53;4978864;28;872;-74
2024/01/02 12:24:35;;;;;;;;;;;;;;;20.94;29.94;97570.97;4978439;28;1182;-73
2024/01/02 12:27:01;;;;;;;;;;;;;;;20.75;30.50;97587.66;4978172;28;844;-73
2024/01/02 12:29:33;;;;;;;;;;;;;;;21.30;29.86;97582.78;4962123;28;922;-73
2024/01/02 12:31:59;;;;;;;;;;;;;;;21.43;29.85;97581.97;4978723;28;1918;-73
2024/01/02 12:34:26;;;;;;;;;;;;;;;21.48;29.58;97576.53;4978539;28;786;-73
2024/01/02 12:36:53;;;;;;;;;;;;;;;21.43;30.00;97579.13;4977748;28;984;-73
2024/01/02 12:39:19;;;;;;;;;;;;;;;21.57;29.75;97584.34;4977983;28;857;-73
2024/01/02 12:41:46;;;;;;;;;;;;;;;21.18;30.12;97586.34;4978143;28;843;-73
2024/01/02 12:44:12;;;;;;;;;;;;;;;20.94;30.28;97587.94;4977907;28;801;-73
2024/01/02 12:46:40;;;;;;;;;;;;;;;20.80;30.61;97589.94;4994120;28;795;-73
2024/01/02 12:49:09;;;;;;;;;;;;;;;21.12;30.28;97585.34;4974688;28;1081;-73
2024/01/02 12:51:36;;;;;;;;;;;;;;;21.30;29.84;97571.44;4975015;28;1906;-74
2024/01/02 12:54:02;;;;;;;;;;;;;;;21.39;30.02;97584.09;4974729;28;937;-74
2024/01/02 12:56:31;;;;;;;;;;;;;;;21.39;29.77;97572.78;4958858;28;1156;-73
2024/01/02 12:59:00;;;;;;;;;;;;;;;21.43;29.87;97579.13;4974732;28;1002;-73